sensor_id;sensor_type;location;lat;lon;timestamp;P1;durP1;ratioP1;P2;durP2;ratioP2
78072;SDS011;67281;48.770;11.440;2023-02-01T00:00:54;4.70;;;4.10;;
78072;SDS011;67281;48.770;11.440;2023-02-01T00:03:20;5.73;;;4.57;;
78072;SDS011;67281;48.770;11.440;2023-02-01T00:05:57;5.20;;;4.67;;
78072;SDS011;67281;48.770;11.440;2023-02-01T00:08:25;4.57;;;4.17;;
78072;SDS011;67281;48.770;11.440;2023-02-01T00:11:02;5.93;;;4.90;;
78072;SDS011;67281;48.770;11.440;2023-02-01T00:13:31;4.77;;;3.50;;
78072;SDS011;67281;48.770;11.440;2023-02-01T00:16:09;5.27;;;4.77;;
78072;SDS011;67281;48.770;11.440;2023-02-01T00:18:39;5.87;;;4.33;;
78072;SDS011;67281;48.770;11.440;2023-02-01T00:21:05;5.17;;;4.33;;
78072;SDS011;67281;48.770;11.440;2023-02-01T00:23:35;5.20;;;4.70;;
78072;SDS011;67281;48.770;11.440;2023-02-01T00:26:03;5.70;;;5.13;;
78072;SDS011;67281;48.770;11.440;2023-02-01T00:28:31;10.90;;;4.80;;
78072;SDS011;67281;48.770;11.440;2023-02-01T00:30:58;6.00;;;4.77;;
78072;SDS011;67281;48.770;11.440;2023-02-01T00:33:29;4.37;;;3.93;;
78072;SDS011;67281;48.770;11.440;2023-02-01T00:35:57;5.67;;;4.53;;
78072;SDS011;67281;48.770;11.440;2023-02-01T00:38:29;6.53;;;5.33;;
78072;SDS011;67281;48.770;11.440;2023-02-01T00:41:12;8.73;;;5.00;;
78072;SDS011;67281;48.770;11.440;2023-02-01T00:43:43;5.00;;;4.07;;
78072;SDS011;67281;48.770;11.440;2023-02-01T00:46:11;6.07;;;4.80;;
78072;SDS011;67281;48.770;11.440;2023-02-01T00:48:39;6.17;;;4.93;;
78072;SDS011;67281;48.770;11.440;2023-02-01T00:51:07;5.27;;;4.60;;
78072;SDS011;67281;48.770;11.440;2023-02-01T00:53:35;4.40;;;4.00;;
78072;SDS011;67281;48.770;11.440;2023-02-01T00:56:03;5.40;;;4.90;;
78072;SDS011;67281;48.770;11.440;2023-02-01T00:58:31;4.47;;;3.70;;
78072;SDS011;67281;48.770;11.440;2023-02-01T01:03:30;4.63;;;4.00;;
78072;SDS011;67281;48.770;11.440;2023-02-01T01:06:00;5.93;;;4.47;;
78072;SDS011;67281;48.770;11.440;2023-02-01T01:08:28;4.70;;;3.70;;
78072;SDS011;67281;48.770;11.440;2023-02-01T01:10:55;5.90;;;4.17;;
78072;SDS011;67281;48.770;11.440;2023-02-01T01:13:22;6.57;;;4.30;;
78072;SDS011;67281;48.770;11.440;2023-02-01T01:15:49;5.10;;;4.60;;
78072;SDS011;67281;48.770;11.440;2023-02-01T01:18:15;4.50;;;4.10;;
78072;SDS011;67281;48.770;11.440;2023-02-01T01:20:42;5.90;;;3.93;;
78072;SDS011;67281;48.770;11.440;2023-02-01T01:23:09;4.87;;;4.37;;
78072;SDS011;67281;48.770;11.440;2023-02-01T01:25:37;3.70;;;3.40;;
78072;SDS011;67281;48.770;11.440;2023-02-01T01:28:05;4.23;;;3.83;;
78072;SDS011;67281;48.770;11.440;2023-02-01T01:30:33;5.97;;;4.80;;
78072;SDS011;67281;48.770;11.440;2023-02-01T01:33:01;5.93;;;3.67;;
78072;SDS011;67281;48.770;11.440;2023-02-01T01:35:29;6.13;;;4.10;;
78072;SDS011;67281;48.770;11.440;2023-02-01T01:37:57;5.10;;;4.27;;
78072;SDS011;67281;48.770;11.440;2023-02-01T01:40:26;5.77;;;4.37;;
78072;SDS011;67281;48.770;11.440;2023-02-01T01:42:53;6.63;;;4.93;;
78072;SDS011;67281;48.770;11.440;2023-02-01T01:45:23;4.57;;;3.63;;
78072;SDS011;67281;48.770;11.440;2023-02-01T01:47:56;5.07;;;4.23;;
78072;SDS011;67281;48.770;11.440;2023-02-01T01:50:29;4.97;;;4.27;;
78072;SDS011;67281;48.770;11.440;2023-02-01T01:53:00;6.23;;;4.90;;
78072;SDS011;67281;48.770;11.440;2023-02-01T01:55:30;7.77;;;4.90;;
78072;SDS011;67281;48.770;11.440;2023-02-01T01:58:02;8.50;;;4.47;;
78072;SDS011;67281;48.770;11.440;2023-02-01T02:00:32;7.53;;;4.77;;
78072;SDS011;67281;48.770;11.440;2023-02-01T02:03:34;5.13;;;4.50;;
78072;SDS011;67281;48.770;11.440;2023-02-01T02:06:00;6.03;;;5.10;;
78072;SDS011;67281;48.770;11.440;2023-02-01T02:08:30;4.50;;;4.10;;
78072;SDS011;67281;48.770;11.440;2023-02-01T02:10:57;4.77;;;4.17;;
78072;SDS011;67281;48.770;11.440;2023-02-01T02:13:36;4.93;;;4.50;;
78072;SDS011;67281;48.770;11.440;2023-02-01T02:16:15;6.33;;;4.73;;
78072;SDS011;67281;48.770;11.440;2023-02-01T02:35:16;4.50;;;4.10;;
78072;SDS011;67281;48.770;11.440;2023-02-01T02:38:04;5.67;;;4.50;;
78072;SDS011;67281;48.770;11.440;2023-02-01T02:44:04;4.53;;;3.87;;
78072;SDS011;67281;48.770;11.440;2023-02-01T02:46:59;5.33;;;3.87;;
78072;SDS011;67281;48.770;11.440;2023-02-01T02:49:54;5.10;;;3.77;;
78072;SDS011;67281;48.770;11.440;2023-02-01T02:52:46;4.03;;;3.63;;
78072;SDS011;67281;48.770;11.440;2023-02-01T02:55:37;4.37;;;3.97;;
78072;SDS011;67281;48.770;11.440;2023-02-01T02:58:06;4.73;;;4.20;;
78072;SDS011;67281;48.770;11.440;2023-02-01T03:00:53;4.83;;;4.33;;
78072;SDS011;67281;48.770;11.440;2023-02-01T03:03:40;4.97;;;4.47;;
78072;SDS011;67281;48.770;11.440;2023-02-01T03:06:27;6.47;;;4.27;;
78072;SDS011;67281;48.770;11.440;2023-02-01T03:08:54;4.87;;;4.40;;
78072;SDS011;67281;48.770;11.440;2023-02-01T03:11:23;4.63;;;3.90;;
78072;SDS011;67281;48.770;11.440;2023-02-01T03:14:10;5.03;;;4.53;;
78072;SDS011;67281;48.770;11.440;2023-02-01T03:16:40;5.23;;;4.63;;
78072;SDS011;67281;48.770;11.440;2023-02-01T03:19:19;3.73;;;3.23;;
78072;SDS011;67281;48.770;11.440;2023-02-01T03:21:53;4.43;;;4.03;;
78072;SDS011;67281;48.770;11.440;2023-02-01T03:24:25;4.80;;;4.10;;
78072;SDS011;67281;48.770;11.440;2023-02-01T03:27:02;5.23;;;4.73;;
78072;SDS011;67281;48.770;11.440;2023-02-01T03:29:40;5.60;;;4.13;;
78072;SDS011;67281;48.770;11.440;2023-02-01T03:32:14;5.17;;;3.80;;
78072;SDS011;67281;48.770;11.440;2023-02-01T03:34:40;6.47;;;3.90;;
78072;SDS011;67281;48.770;11.440;2023-02-01T03:37:10;4.97;;;3.67;;
78072;SDS011;67281;48.770;11.440;2023-02-01T03:42:18;3.20;;;2.90;;
78072;SDS011;67281;48.770;11.440;2023-02-01T03:48:00;3.80;;;3.50;;
78072;SDS011;67281;48.770;11.440;2023-02-01T03:50:29;3.80;;;3.50;;
78072;SDS011;67281;48.770;11.440;2023-02-01T03:53:07;4.80;;;4.30;;
78072;SDS011;67281;48.770;11.440;2023-02-01T03:55:38;4.47;;;4.00;;
78072;SDS011;67281;48.770;11.440;2023-02-01T04:00:40;5.03;;;3.67;;
78072;SDS011;67281;48.770;11.440;2023-02-01T04:03:07;3.53;;;3.23;;
78072;SDS011;67281;48.770;11.440;2023-02-01T04:05:34;5.43;;;4.03;;
78072;SDS011;67281;48.770;11.440;2023-02-01T04:08:00;4.23;;;3.43;;
78072;SDS011;67281;48.770;11.440;2023-02-01T04:10:27;3.93;;;3.53;;
78072;SDS011;67281;48.770;11.440;2023-02-01T04:12:54;3.50;;;3.20;;
78072;SDS011;67281;48.770;11.440;2023-02-01T04:15:21;4.20;;;3.20;;
78072;SDS011;67281;48.770;11.440;2023-02-01T04:17:48;4.03;;;3.63;;
78072;SDS011;67281;48.770;11.440;2023-02-01T04:20:14;3.17;;;2.87;;
78072;SDS011;67281;48.770;11.440;2023-02-01T04:22:41;3.83;;;3.17;;
78072;SDS011;67281;48.770;11.440;2023-02-01T04:25:08;3.67;;;3.23;;
78072;SDS011;67281;48.770;11.440;2023-02-01T04:27:35;3.40;;;2.77;;
78072;SDS011;67281;48.770;11.440;2023-02-01T04:30:02;3.63;;;2.80;;
78072;SDS011;67281;48.770;11.440;2023-02-01T04:32:30;3.80;;;3.23;;
78072;SDS011;67281;48.770;11.440;2023-02-01T04:34:56;3.93;;;3.60;;
78072;SDS011;67281;48.770;11.440;2023-02-01T04:37:23;3.77;;;3.13;;
78072;SDS011;67281;48.770;11.440;2023-02-01T04:39:49;4.53;;;2.83;;
78072;SDS011;67281;48.770;11.440;2023-02-01T04:42:16;4.50;;;3.43;;
78072;SDS011;67281;48.770;11.440;2023-02-01T04:44:43;4.27;;;3.13;;
78072;SDS011;67281;48.770;11.440;2023-02-01T04:47:09;4.07;;;3.00;;
78072;SDS011;67281;48.770;11.440;2023-02-01T04:49:36;3.00;;;2.70;;
78072;SDS011;67281;48.770;11.440;2023-02-01T04:52:03;3.10;;;2.80;;
78072;SDS011;67281;48.770;11.440;2023-02-01T04:54:30;3.83;;;2.97;;
78072;SDS011;67281;48.770;11.440;2023-02-01T04:56:56;3.20;;;2.90;;
78072;SDS011;67281;48.770;11.440;2023-02-01T04:59:23;3.33;;;3.03;;
78072;SDS011;67281;48.770;11.440;2023-02-01T05:01:49;3.67;;;3.17;;
78072;SDS011;67281;48.770;11.440;2023-02-01T05:04:16;3.07;;;2.77;;
78072;SDS011;67281;48.770;11.440;2023-02-01T05:06:45;3.23;;;2.83;;
78072;SDS011;67281;48.770;11.440;2023-02-01T05:09:11;3.63;;;3.30;;
78072;SDS011;67281;48.770;11.440;2023-02-01T05:11:38;4.30;;;3.17;;
78072;SDS011;67281;48.770;11.440;2023-02-01T05:14:23;3.10;;;2.80;;
78072;SDS011;67281;48.770;11.440;2023-02-01T05:16:50;3.70;;;3.20;;
78072;SDS011;67281;48.770;11.440;2023-02-01T05:19:16;4.43;;;3.60;;
78072;SDS011;67281;48.770;11.440;2023-02-01T05:21:43;3.90;;;3.20;;
78072;SDS011;67281;48.770;11.440;2023-02-01T05:24:09;4.73;;;3.10;;
78072;SDS011;67281;48.770;11.440;2023-02-01T05:26:36;3.17;;;2.50;;
78072;SDS011;67281;48.770;11.440;2023-02-01T05:29:04;3.37;;;3.07;;
78072;SDS011;67281;48.770;11.440;2023-02-01T05:31:32;3.17;;;2.93;;
78072;SDS011;67281;48.770;11.440;2023-02-01T05:33:59;3.83;;;3.30;;
78072;SDS011;67281;48.770;11.440;2023-02-01T05:36:41;3.87;;;3.47;;
78072;SDS011;67281;48.770;11.440;2023-02-01T05:39:08;3.67;;;3.20;;
78072;SDS011;67281;48.770;11.440;2023-02-01T05:41:36;3.40;;;3.13;;
78072;SDS011;67281;48.770;11.440;2023-02-01T05:44:03;4.00;;;3.60;;
78072;SDS011;67281;48.770;11.440;2023-02-01T05:46:30;3.47;;;3.17;;
78072;SDS011;67281;48.770;11.440;2023-02-01T05:48:56;3.40;;;3.10;;
78072;SDS011;67281;48.770;11.440;2023-02-01T05:51:23;3.27;;;2.97;;
78072;SDS011;67281;48.770;11.440;2023-02-01T05:53:50;4.67;;;3.50;;
78072;SDS011;67281;48.770;11.440;2023-02-01T05:56:16;4.10;;;2.87;;
78072;SDS011;67281;48.770;11.440;2023-02-01T05:58:43;3.03;;;2.83;;
78072;SDS011;67281;48.770;11.440;2023-02-01T06:01:10;3.53;;;3.23;;
78072;SDS011;67281;48.770;11.440;2023-02-01T06:03:37;2.83;;;2.60;;
78072;SDS011;67281;48.770;11.440;2023-02-01T06:06:04;3.20;;;2.90;;
78072;SDS011;67281;48.770;11.440;2023-02-01T06:08:31;3.50;;;2.80;;
78072;SDS011;67281;48.770;11.440;2023-02-01T06:10:59;3.03;;;2.70;;
78072;SDS011;67281;48.770;11.440;2023-02-01T06:13:27;3.20;;;2.90;;
78072;SDS011;67281;48.770;11.440;2023-02-01T06:15:53;3.50;;;3.20;;
78072;SDS011;67281;48.770;11.440;2023-02-01T06:18:22;3.00;;;2.70;;
78072;SDS011;67281;48.770;11.440;2023-02-01T06:20:53;2.90;;;2.70;;
78072;SDS011;67281;48.770;11.440;2023-02-01T06:23:21;3.53;;;2.70;;
78072;SDS011;67281;48.770;11.440;2023-02-01T06:25:50;3.90;;;3.30;;
78072;SDS011;67281;48.770;11.440;2023-02-01T06:28:18;2.93;;;2.73;;
78072;SDS011;67281;48.770;11.440;2023-02-01T06:30:45;3.10;;;2.87;;
78072;SDS011;67281;48.770;11.440;2023-02-01T06:33:15;2.83;;;2.43;;
78072;SDS011;67281;48.770;11.440;2023-02-01T06:35:42;3.00;;;2.70;;
78072;SDS011;67281;48.770;11.440;2023-02-01T06:38:11;2.93;;;2.73;;
78072;SDS011;67281;48.770;11.440;2023-02-01T06:40:38;2.70;;;2.50;;
78072;SDS011;67281;48.770;11.440;2023-02-01T06:43:05;3.10;;;2.80;;
78072;SDS011;67281;48.770;11.440;2023-02-01T06:45:32;3.13;;;2.90;;
78072;SDS011;67281;48.770;11.440;2023-02-01T06:47:59;3.60;;;2.73;;
78072;SDS011;67281;48.770;11.440;2023-02-01T06:50:27;3.30;;;3.10;;
78072;SDS011;67281;48.770;11.440;2023-02-01T06:52:54;3.47;;;3.17;;
78072;SDS011;67281;48.770;11.440;2023-02-01T06:55:21;4.77;;;2.77;;
78072;SDS011;67281;48.770;11.440;2023-02-01T06:57:52;3.63;;;3.33;;
78072;SDS011;67281;48.770;11.440;2023-02-01T07:00:19;2.97;;;2.77;;
78072;SDS011;67281;48.770;11.440;2023-02-01T07:02:47;3.30;;;3.00;;
78072;SDS011;67281;48.770;11.440;2023-02-01T07:05:14;3.17;;;2.87;;
78072;SDS011;67281;48.770;11.440;2023-02-01T07:07:41;3.13;;;2.77;;
78072;SDS011;67281;48.770;11.440;2023-02-01T07:10:08;4.37;;;3.30;;
78072;SDS011;67281;48.770;11.440;2023-02-01T07:12:38;4.30;;;2.80;;
78072;SDS011;67281;48.770;11.440;2023-02-01T07:15:05;3.70;;;2.83;;
78072;SDS011;67281;48.770;11.440;2023-02-01T07:17:33;4.70;;;2.57;;
78072;SDS011;67281;48.770;11.440;2023-02-01T07:19:59;3.60;;;3.13;;
78072;SDS011;67281;48.770;11.440;2023-02-01T07:22:27;3.03;;;2.77;;
78072;SDS011;67281;48.770;11.440;2023-02-01T07:24:54;4.10;;;2.90;;
78072;SDS011;67281;48.770;11.440;2023-02-01T07:27:21;3.87;;;2.63;;
78072;SDS011;67281;48.770;11.440;2023-02-01T07:29:54;2.80;;;2.60;;
78072;SDS011;67281;48.770;11.440;2023-02-01T07:32:21;2.80;;;2.60;;
78072;SDS011;67281;48.770;11.440;2023-02-01T07:34:48;3.30;;;2.90;;
78072;SDS011;67281;48.770;11.440;2023-02-01T07:37:15;3.33;;;2.73;;
78072;SDS011;67281;48.770;11.440;2023-02-01T07:39:42;3.33;;;2.87;;
78072;SDS011;67281;48.770;11.440;2023-02-01T07:42:08;3.00;;;2.70;;
78072;SDS011;67281;48.770;11.440;2023-02-01T07:44:35;3.20;;;2.90;;
78072;SDS011;67281;48.770;11.440;2023-02-01T07:47:02;3.07;;;2.77;;
78072;SDS011;67281;48.770;11.440;2023-02-01T07:49:28;3.23;;;2.97;;
78072;SDS011;67281;48.770;11.440;2023-02-01T07:51:55;3.47;;;3.17;;
78072;SDS011;67281;48.770;11.440;2023-02-01T07:54:21;3.53;;;3.23;;
78072;SDS011;67281;48.770;11.440;2023-02-01T07:56:48;3.47;;;3.17;;
78072;SDS011;67281;48.770;11.440;2023-02-01T07:59:15;3.27;;;2.97;;
78072;SDS011;67281;48.770;11.440;2023-02-01T08:01:42;4.70;;;3.10;;
78072;SDS011;67281;48.770;11.440;2023-02-01T08:04:09;3.97;;;3.57;;
78072;SDS011;67281;48.770;11.440;2023-02-01T08:06:38;4.47;;;3.40;;
78072;SDS011;67281;48.770;11.440;2023-02-01T08:09:05;3.83;;;3.53;;
78072;SDS011;67281;48.770;11.440;2023-02-01T08:11:34;3.60;;;3.30;;
78072;SDS011;67281;48.770;11.440;2023-02-01T08:14:03;4.43;;;4.03;;
78072;SDS011;67281;48.770;11.440;2023-02-01T08:16:29;4.63;;;3.73;;
78072;SDS011;67281;48.770;11.440;2023-02-01T08:18:57;4.77;;;3.53;;
78072;SDS011;67281;48.770;11.440;2023-02-01T08:21:25;4.80;;;3.80;;
78072;SDS011;67281;48.770;11.440;2023-02-01T08:23:54;4.67;;;4.17;;
78072;SDS011;67281;48.770;11.440;2023-02-01T08:26:23;4.40;;;4.00;;
78072;SDS011;67281;48.770;11.440;2023-02-01T08:28:53;4.70;;;4.30;;
78072;SDS011;67281;48.770;11.440;2023-02-01T08:31:22;4.30;;;3.90;;
78072;SDS011;67281;48.770;11.440;2023-02-01T08:33:54;5.20;;;4.20;;
78072;SDS011;67281;48.770;11.440;2023-02-01T08:36:23;4.80;;;3.97;;
78072;SDS011;67281;48.770;11.440;2023-02-01T08:38:51;4.47;;;4.07;;
78072;SDS011;67281;48.770;11.440;2023-02-01T08:41:19;4.70;;;3.80;;
78072;SDS011;67281;48.770;11.440;2023-02-01T08:43:48;4.33;;;3.90;;
78072;SDS011;67281;48.770;11.440;2023-02-01T08:46:15;4.90;;;4.50;;
78072;SDS011;67281;48.770;11.440;2023-02-01T08:48:43;4.90;;;4.07;;
78072;SDS011;67281;48.770;11.440;2023-02-01T08:51:11;5.23;;;4.03;;
78072;SDS011;67281;48.770;11.440;2023-02-01T08:53:39;4.90;;;4.50;;
78072;SDS011;67281;48.770;11.440;2023-02-01T08:56:08;4.67;;;3.93;;
78072;SDS011;67281;48.770;11.440;2023-02-01T08:58:35;6.13;;;4.10;;
78072;SDS011;67281;48.770;11.440;2023-02-01T09:01:06;4.03;;;3.67;;
78072;SDS011;67281;48.770;11.440;2023-02-01T09:03:35;4.43;;;4.03;;
78072;SDS011;67281;48.770;11.440;2023-02-01T09:06:03;6.17;;;4.30;;
78072;SDS011;67281;48.770;11.440;2023-02-01T09:08:31;4.50;;;4.10;;
78072;SDS011;67281;48.770;11.440;2023-02-01T09:10:58;5.53;;;5.03;;
78072;SDS011;67281;48.770;11.440;2023-02-01T09:13:29;6.17;;;4.93;;
78072;SDS011;67281;48.770;11.440;2023-02-01T09:15:56;4.93;;;4.23;;
78072;SDS011;67281;48.770;11.440;2023-02-01T09:18:23;5.30;;;4.47;;
78072;SDS011;67281;48.770;11.440;2023-02-01T09:20:50;8.20;;;4.43;;
78072;SDS011;67281;48.770;11.440;2023-02-01T09:23:16;4.07;;;3.53;;
78072;SDS011;67281;48.770;11.440;2023-02-01T09:25:43;5.17;;;4.30;;
78072;SDS011;67281;48.770;11.440;2023-02-01T09:28:10;7.20;;;4.70;;
78072;SDS011;67281;48.770;11.440;2023-02-01T09:30:55;5.97;;;4.43;;
78072;SDS011;67281;48.770;11.440;2023-02-01T09:33:26;4.13;;;3.57;;
78072;SDS011;67281;48.770;11.440;2023-02-01T09:35:57;5.17;;;4.67;;
78072;SDS011;67281;48.770;11.440;2023-02-01T09:38:25;4.47;;;3.50;;
78072;SDS011;67281;48.770;11.440;2023-02-01T09:40:54;6.33;;;4.50;;
78072;SDS011;67281;48.770;11.440;2023-02-01T09:46:08;5.23;;;3.80;;
78072;SDS011;67281;48.770;11.440;2023-02-01T09:48:42;4.50;;;4.10;;
78072;SDS011;67281;48.770;11.440;2023-02-01T09:51:13;4.20;;;3.90;;
78072;SDS011;67281;48.770;11.440;2023-02-01T09:53:46;3.90;;;3.50;;
78072;SDS011;67281;48.770;11.440;2023-02-01T09:56:23;4.47;;;4.07;;
78072;SDS011;67281;48.770;11.440;2023-02-01T09:58:59;4.50;;;4.10;;
78072;SDS011;67281;48.770;11.440;2023-02-01T10:01:34;4.33;;;3.93;;
78072;SDS011;67281;48.770;11.440;2023-02-01T10:04:05;4.40;;;3.37;;
78072;SDS011;67281;48.770;11.440;2023-02-01T10:06:37;5.33;;;4.00;;
78072;SDS011;67281;48.770;11.440;2023-02-01T10:11:53;4.80;;;4.20;;
78072;SDS011;67281;48.770;11.440;2023-02-01T10:20:52;5.70;;;4.40;;
78072;SDS011;67281;48.770;11.440;2023-02-01T10:26:25;5.30;;;4.80;;
78072;SDS011;67281;48.770;11.440;2023-02-01T10:28:59;5.00;;;4.50;;
78072;SDS011;67281;48.770;11.440;2023-02-01T10:31:28;5.60;;;5.20;;
78072;SDS011;67281;48.770;11.440;2023-02-01T10:33:59;5.40;;;4.73;;
78072;SDS011;67281;48.770;11.440;2023-02-01T10:36:29;10.93;;;4.50;;
78072;SDS011;67281;48.770;11.440;2023-02-01T10:39:02;5.93;;;3.93;;
78072;SDS011;67281;48.770;11.440;2023-02-01T10:41:36;5.00;;;4.57;;
78072;SDS011;67281;48.770;11.440;2023-02-01T10:44:13;6.57;;;4.60;;
78072;SDS011;67281;48.770;11.440;2023-02-01T10:46:42;5.80;;;3.80;;
78072;SDS011;67281;48.770;11.440;2023-02-01T10:49:12;6.43;;;5.00;;
78072;SDS011;67281;48.770;11.440;2023-02-01T10:51:54;5.80;;;4.43;;
78072;SDS011;67281;48.770;11.440;2023-02-01T10:54:33;5.17;;;4.60;;
78072;SDS011;67281;48.770;11.440;2023-02-01T10:57:01;8.23;;;5.17;;
78072;SDS011;67281;48.770;11.440;2023-02-01T10:59:28;5.93;;;4.20;;
78072;SDS011;67281;48.770;11.440;2023-02-01T11:01:59;9.43;;;5.90;;
78072;SDS011;67281;48.770;11.440;2023-02-01T11:04:30;7.03;;;5.03;;
78072;SDS011;67281;48.770;11.440;2023-02-01T11:09:49;5.07;;;4.57;;
78072;SDS011;67281;48.770;11.440;2023-02-01T11:12:33;6.93;;;4.73;;
78072;SDS011;67281;48.770;11.440;2023-02-01T11:15:20;4.13;;;3.53;;
78072;SDS011;67281;48.770;11.440;2023-02-01T11:17:49;6.87;;;4.20;;
78072;SDS011;67281;48.770;11.440;2023-02-01T11:20:19;5.00;;;3.50;;
78072;SDS011;67281;48.770;11.440;2023-02-01T11:22:57;3.63;;;3.10;;
78072;SDS011;67281;48.770;11.440;2023-02-01T11:25:25;4.03;;;3.67;;
78072;SDS011;67281;48.770;11.440;2023-02-01T11:27:53;5.77;;;3.33;;
78072;SDS011;67281;48.770;11.440;2023-02-01T11:30:31;5.83;;;4.10;;
78072;SDS011;67281;48.770;11.440;2023-02-01T11:33:01;6.10;;;3.83;;
78072;SDS011;67281;48.770;11.440;2023-02-01T11:35:32;4.10;;;3.70;;
78072;SDS011;67281;48.770;11.440;2023-02-01T11:38:09;6.20;;;4.20;;
78072;SDS011;67281;48.770;11.440;2023-02-01T11:40:40;7.27;;;4.77;;
78072;SDS011;67281;48.770;11.440;2023-02-01T11:45:33;4.83;;;4.10;;
78072;SDS011;67281;48.770;11.440;2023-02-01T11:48:01;6.43;;;5.30;;
78072;SDS011;67281;48.770;11.440;2023-02-01T11:50:59;7.33;;;5.43;;
78072;SDS011;67281;48.770;11.440;2023-02-01T11:56:37;8.77;;;5.47;;
78072;SDS011;67281;48.770;11.440;2023-02-01T11:59:26;9.60;;;5.60;;
78072;SDS011;67281;48.770;11.440;2023-02-01T12:08:12;7.40;;;4.80;;
78072;SDS011;67281;48.770;11.440;2023-02-01T12:41:30;8.97;;;6.20;;
78072;SDS011;67281;48.770;11.440;2023-02-01T12:43:48;6.77;;;5.03;;
78072;SDS011;67281;48.770;11.440;2023-02-01T12:49:16;5.63;;;5.07;;
78072;SDS011;67281;48.770;11.440;2023-02-01T12:51:52;6.17;;;4.53;;
78072;SDS011;67281;48.770;11.440;2023-02-01T12:54:37;7.27;;;5.23;;
78072;SDS011;67281;48.770;11.440;2023-02-01T12:57:25;6.60;;;5.13;;
78072;SDS011;67281;48.770;11.440;2023-02-01T13:05:22;6.03;;;3.97;;
78072;SDS011;67281;48.770;11.440;2023-02-01T13:08:10;6.50;;;4.50;;
78072;SDS011;67281;48.770;11.440;2023-02-01T13:10:46;4.73;;;4.33;;
78072;SDS011;67281;48.770;11.440;2023-02-01T13:15:45;5.10;;;4.33;;
78072;SDS011;67281;48.770;11.440;2023-02-01T13:18:19;5.93;;;4.40;;
78072;SDS011;67281;48.770;11.440;2023-02-01T13:20:53;4.63;;;4.03;;
78072;SDS011;67281;48.770;11.440;2023-02-01T13:23:33;8.63;;;5.00;;
78072;SDS011;67281;48.770;11.440;2023-02-01T13:26:02;6.40;;;4.10;;
78072;SDS011;67281;48.770;11.440;2023-02-01T13:34:30;7.07;;;4.77;;
78072;SDS011;67281;48.770;11.440;2023-02-01T13:43:05;7.63;;;4.27;;
78072;SDS011;67281;48.770;11.440;2023-02-01T13:45:45;9.17;;;5.63;;
78072;SDS011;67281;48.770;11.440;2023-02-01T13:48:20;7.93;;;5.03;;
78072;SDS011;67281;48.770;11.440;2023-02-01T13:50:54;7.20;;;4.13;;
78072;SDS011;67281;48.770;11.440;2023-02-01T13:53:30;9.00;;;4.60;;
78072;SDS011;67281;48.770;11.440;2023-02-01T13:56:03;9.17;;;5.27;;
78072;SDS011;67281;48.770;11.440;2023-02-01T13:58:38;6.40;;;4.33;;
78072;SDS011;67281;48.770;11.440;2023-02-01T14:03:49;10.50;;;5.63;;
78072;SDS011;67281;48.770;11.440;2023-02-01T14:06:38;10.20;;;4.97;;
78072;SDS011;67281;48.770;11.440;2023-02-01T14:11:47;8.50;;;4.77;;
78072;SDS011;67281;48.770;11.440;2023-02-01T14:17:32;7.13;;;3.90;;
78072;SDS011;67281;48.770;11.440;2023-02-01T14:19:34;9.43;;;4.30;;
78072;SDS011;67281;48.770;11.440;2023-02-01T14:22:46;10.10;;;4.03;;
78072;SDS011;67281;48.770;11.440;2023-02-01T14:24:50;10.60;;;4.20;;
78072;SDS011;67281;48.770;11.440;2023-02-01T14:27:30;7.73;;;3.70;;
78072;SDS011;67281;48.770;11.440;2023-02-01T14:30:05;13.00;;;4.30;;
78072;SDS011;67281;48.770;11.440;2023-02-01T14:32:34;9.53;;;4.33;;
78072;SDS011;67281;48.770;11.440;2023-02-01T14:35:12;10.20;;;4.43;;
78072;SDS011;67281;48.770;11.440;2023-02-01T14:37:50;7.13;;;3.83;;
78072;SDS011;67281;48.770;11.440;2023-02-01T14:40:23;8.73;;;3.90;;
78072;SDS011;67281;48.770;11.440;2023-02-01T14:42:52;5.50;;;3.30;;
78072;SDS011;67281;48.770;11.440;2023-02-01T14:50:45;11.00;;;3.73;;
78072;SDS011;67281;48.770;11.440;2023-02-01T15:01:17;5.60;;;3.67;;
78072;SDS011;67281;48.770;11.440;2023-02-01T15:03:55;8.40;;;3.77;;
78072;SDS011;67281;48.770;11.440;2023-02-01T15:06:58;9.77;;;3.70;;
78072;SDS011;67281;48.770;11.440;2023-02-01T15:09:34;8.27;;;3.30;;
78072;SDS011;67281;48.770;11.440;2023-02-01T15:12:04;5.87;;;3.40;;
78072;SDS011;67281;48.770;11.440;2023-02-01T15:14:33;6.83;;;3.27;;
78072;SDS011;67281;48.770;11.440;2023-02-01T15:17:02;5.67;;;2.50;;
78072;SDS011;67281;48.770;11.440;2023-02-01T15:19:57;6.47;;;3.00;;
78072;SDS011;67281;48.770;11.440;2023-02-01T15:22:26;8.17;;;3.77;;
78072;SDS011;67281;48.770;11.440;2023-02-01T15:24:54;11.50;;;3.83;;
78072;SDS011;67281;48.770;11.440;2023-02-01T15:27:22;9.97;;;4.00;;
78072;SDS011;67281;48.770;11.440;2023-02-01T15:29:49;7.67;;;3.67;;
78072;SDS011;67281;48.770;11.440;2023-02-01T15:32:36;8.73;;;3.77;;
78072;SDS011;67281;48.770;11.440;2023-02-01T15:35:05;5.50;;;3.10;;
78072;SDS011;67281;48.770;11.440;2023-02-01T15:37:52;6.47;;;3.60;;
78072;SDS011;67281;48.770;11.440;2023-02-01T15:40:19;5.90;;;2.90;;
78072;SDS011;67281;48.770;11.440;2023-02-01T15:42:55;3.80;;;2.40;;
78072;SDS011;67281;48.770;11.440;2023-02-01T15:45:28;5.17;;;2.97;;
78072;SDS011;67281;48.770;11.440;2023-02-01T15:47:57;9.00;;;3.60;;
78072;SDS011;67281;48.770;11.440;2023-02-01T15:50:24;8.53;;;3.43;;
78072;SDS011;67281;48.770;11.440;2023-02-01T15:52:55;9.67;;;3.50;;
78072;SDS011;67281;48.770;11.440;2023-02-01T15:55:38;8.60;;;3.80;;
78072;SDS011;67281;48.770;11.440;2023-02-01T15:58:14;6.60;;;3.60;;
78072;SDS011;67281;48.770;11.440;2023-02-01T16:00:45;7.17;;;3.13;;
78072;SDS011;67281;48.770;11.440;2023-02-01T16:06:09;6.50;;;3.63;;
78072;SDS011;67281;48.770;11.440;2023-02-01T16:08:53;9.47;;;4.37;;
78072;SDS011;67281;48.770;11.440;2023-02-01T16:11:27;9.63;;;3.80;;
78072;SDS011;67281;48.770;11.440;2023-02-01T16:13:57;6.47;;;3.57;;
78072;SDS011;67281;48.770;11.440;2023-02-01T16:16:26;10.40;;;3.77;;
78072;SDS011;67281;48.770;11.440;2023-02-01T16:18:54;5.70;;;2.57;;
78072;SDS011;67281;48.770;11.440;2023-02-01T16:21:23;5.23;;;2.80;;
78072;SDS011;67281;48.770;11.440;2023-02-01T16:23:50;8.00;;;3.83;;
78072;SDS011;67281;48.770;11.440;2023-02-01T16:26:18;9.23;;;3.67;;
78072;SDS011;67281;48.770;11.440;2023-02-01T16:28:46;12.33;;;4.50;;
78072;SDS011;67281;48.770;11.440;2023-02-01T16:31:14;6.97;;;3.50;;
78072;SDS011;67281;48.770;11.440;2023-02-01T16:33:48;9.40;;;3.83;;
78072;SDS011;67281;48.770;11.440;2023-02-01T16:36:16;7.47;;;3.13;;
78072;SDS011;67281;48.770;11.440;2023-02-01T16:38:44;7.77;;;3.57;;
78072;SDS011;67281;48.770;11.440;2023-02-01T16:41:13;5.27;;;3.60;;
78072;SDS011;67281;48.770;11.440;2023-02-01T16:43:43;6.70;;;3.07;;
78072;SDS011;67281;48.770;11.440;2023-02-01T16:46:13;7.37;;;3.40;;
78072;SDS011;67281;48.770;11.440;2023-02-01T16:48:42;7.67;;;4.03;;
78072;SDS011;67281;48.770;11.440;2023-02-01T16:51:13;7.73;;;4.10;;
78072;SDS011;67281;48.770;11.440;2023-02-01T16:53:42;6.00;;;3.73;;
78072;SDS011;67281;48.770;11.440;2023-02-01T16:56:23;8.63;;;3.70;;
78072;SDS011;67281;48.770;11.440;2023-02-01T16:58:55;6.43;;;3.57;;
78072;SDS011;67281;48.770;11.440;2023-02-01T17:01:21;9.63;;;3.93;;
78072;SDS011;67281;48.770;11.440;2023-02-01T17:03:48;5.70;;;3.43;;
78072;SDS011;67281;48.770;11.440;2023-02-01T17:06:17;6.23;;;3.30;;
78072;SDS011;67281;48.770;11.440;2023-02-01T17:09:04;6.37;;;3.20;;
78072;SDS011;67281;48.770;11.440;2023-02-01T17:11:31;5.30;;;3.40;;
78072;SDS011;67281;48.770;11.440;2023-02-01T17:14:09;4.03;;;2.70;;